createdAt,value
2023-02-20T00:02:09.629Z,0.10
2023-02-20T00:04:37.972Z,0.10
2023-02-20T00:07:07.645Z,0.10
2023-02-20T00:09:36.002Z,0.10
2023-02-20T00:12:04.777Z,0.10
2023-02-20T00:14:33.060Z,0.20
2023-02-20T00:17:02.271Z,0.20
2023-02-20T00:19:30.539Z,0.30
2023-02-20T00:21:58.874Z,0.30
2023-02-20T00:24:28.576Z,0.40
2023-02-20T00:26:56.844Z,0.40
2023-02-20T00:29:25.833Z,0.40
2023-02-20T00:31:55.574Z,0.50
2023-02-20T00:34:24.962Z,0.50
2023-02-20T00:36:53.236Z,0.60
2023-02-20T00:39:21.668Z,0.60
2023-02-20T00:41:51.401Z,0.60
2023-02-20T00:44:19.680Z,0.60
2023-02-20T00:46:47.938Z,0.70
2023-02-20T00:49:16.427Z,0.70
2023-02-20T00:51:44.662Z,0.70
2023-02-20T00:54:12.906Z,0.70
2023-02-20T00:56:41.244Z,0.70
2023-02-20T00:59:11.183Z,0.70
2023-02-20T01:01:39.563Z,0.80
2023-02-20T01:04:08.075Z,0.80
2023-02-20T01:06:36.815Z,0.80
2023-02-20T01:09:05.229Z,0.90
2023-02-20T01:11:33.557Z,0.90
2023-02-20T01:14:02.258Z,0.90
2023-02-20T01:16:32.134Z,0.90
2023-02-20T01:19:00.612Z,0.90
2023-02-20T01:21:28.875Z,0.90
2023-02-20T01:23:57.104Z,0.90
2023-02-20T01:26:25.515Z,0.90
2023-02-20T01:28:53.794Z,0.90
2023-02-20T01:31:22.133Z,0.90
2023-02-20T01:33:51.937Z,0.90
2023-02-20T01:36:20.919Z,0.90
2023-02-20T01:38:51.053Z,0.80
2023-02-20T01:41:20.245Z,0.80
2023-02-20T01:43:48.611Z,0.80
2023-02-20T01:46:52.392Z,0.90
2023-02-20T01:49:31.153Z,0.90
2023-02-20T01:52:09.872Z,0.80
2023-02-20T01:54:42.313Z,1.00
2023-02-20T01:57:18.730Z,1.10
2023-02-20T01:59:48.887Z,1.10
2023-02-20T02:02:17.800Z,1.20
2023-02-20T02:04:50.153Z,1.20
2023-02-20T02:07:18.564Z,1.30
2023-02-20T02:09:51.930Z,1.30
2023-02-20T02:12:20.241Z,1.30
2023-02-20T02:14:48.506Z,1.30
2023-02-20T02:17:42.343Z,1.30
2023-02-20T02:20:46.924Z,1.40
2023-02-20T02:24:00.643Z,1.40
2023-02-20T02:26:57.880Z,1.40
2023-02-20T02:29:58.697Z,1.50
2023-02-20T02:32:58.589Z,1.50
2023-02-20T02:36:07.592Z,1.50
2023-02-20T02:38:45.158Z,1.60
2023-02-20T02:41:21.935Z,1.60
2023-02-20T02:43:55.219Z,1.60
2023-02-20T02:46:28.797Z,1.60
2023-02-20T02:49:02.932Z,1.70
2023-02-20T02:51:37.433Z,1.70
2023-02-20T02:54:11.803Z,1.70
2023-02-20T02:56:41.855Z,1.70
2023-02-20T02:59:14.162Z,1.70
2023-02-20T03:01:46.962Z,1.70
2023-02-20T03:04:23.621Z,1.80
2023-02-20T03:06:58.231Z,1.80
2023-02-20T03:09:29.947Z,1.80
2023-02-20T03:12:01.608Z,1.80
2023-02-20T03:14:52.422Z,1.90
2023-02-20T03:17:29.119Z,1.90
2023-02-20T03:20:00.760Z,1.90
2023-02-20T03:22:34.709Z,1.90
2023-02-20T03:25:07.100Z,1.90
2023-02-20T03:27:41.285Z,2.00
2023-02-20T03:30:15.392Z,2.00
2023-02-20T03:33:03.665Z,2.10
2023-02-20T03:35:53.727Z,2.10
2023-02-20T03:38:43.184Z,2.20
2023-02-20T03:41:32.449Z,2.20
2023-02-20T03:44:05.489Z,2.20
2023-02-20T03:46:37.488Z,2.20
2023-02-20T03:49:27.328Z,2.30
2023-02-20T03:51:58.932Z,2.30
2023-02-20T03:54:30.233Z,2.30
2023-02-20T03:57:03.456Z,2.30
2023-02-20T03:59:37.428Z,2.40
2023-02-20T04:02:10.763Z,2.40
2023-02-20T04:04:43.342Z,2.50
2023-02-20T04:07:19.792Z,2.50
2023-02-20T04:09:49.949Z,2.50
2023-02-20T04:12:24.398Z,2.60
2023-02-20T04:14:55.644Z,2.60
2023-02-20T04:17:27.409Z,2.70
2023-02-20T04:19:55.860Z,2.70
2023-02-20T04:22:29.114Z,2.80
2023-02-20T04:25:02.231Z,2.90
2023-02-20T04:27:30.945Z,2.90
2023-02-20T04:29:59.644Z,2.90
2023-02-20T04:32:28.146Z,2.90
2023-02-20T04:34:57.698Z,2.90
2023-02-20T04:37:37.320Z,3.00
2023-02-20T04:40:25.841Z,3.10
2023-02-20T04:42:56.129Z,3.10
2023-02-20T04:45:24.573Z,3.20
2023-02-20T04:47:54.836Z,3.30
2023-02-20T04:50:25.671Z,3.40
2023-02-20T04:52:54.295Z,3.40
2023-02-20T04:56:07.994Z,3.50
2023-02-20T04:58:37.874Z,3.50
2023-02-20T05:01:19.770Z,3.60
2023-02-20T05:03:48.356Z,3.60
2023-02-20T05:06:16.933Z,3.60
2023-02-20T05:08:45.835Z,3.60
2023-02-20T05:11:14.163Z,3.60
2023-02-20T05:13:44.141Z,3.60
2023-02-20T05:16:14.989Z,3.60
2023-02-20T05:18:43.562Z,3.70
2023-02-20T05:21:37.181Z,3.70
2023-02-20T05:24:11.267Z,3.80
2023-02-20T05:26:40.293Z,3.80
2023-02-20T05:29:30.896Z,3.80
2023-02-20T05:32:00.288Z,3.80
2023-02-20T05:34:31.105Z,3.80
2023-02-20T05:37:24.970Z,3.90
2023-02-20T05:39:58.842Z,3.90
2023-02-20T05:42:40.208Z,3.90
2023-02-20T05:45:15.010Z,3.90
2023-02-20T05:47:46.144Z,3.90
2023-02-20T05:50:14.516Z,4.00
2023-02-20T05:52:48.285Z,4.00
2023-02-20T05:55:16.933Z,4.00
2023-02-20T05:57:47.697Z,4.10
2023-02-20T06:00:20.364Z,4.00
2023-02-20T06:02:49.411Z,4.10
2023-02-20T06:05:18.244Z,4.10
2023-02-20T06:07:47.133Z,4.10
2023-02-20T06:10:19.486Z,4.10
2023-02-20T06:12:47.942Z,4.10
2023-02-20T06:15:17.858Z,4.10
2023-02-20T06:17:46.453Z,4.10
2023-02-20T06:20:15.156Z,4.10
2023-02-20T06:22:48.355Z,4.10
2023-02-20T06:25:16.961Z,4.10
2023-02-20T06:27:45.234Z,4.10
2023-02-20T06:30:17.528Z,4.10
2023-02-20T06:32:49.029Z,4.20
2023-02-20T06:35:20.601Z,4.30
2023-02-20T06:37:49.529Z,4.40
2023-02-20T06:40:17.924Z,4.40
2023-02-20T06:42:48.378Z,4.40
2023-02-20T06:45:16.954Z,4.40
2023-02-20T06:47:46.827Z,4.40
2023-02-20T06:50:15.707Z,4.50
2023-02-20T06:52:45.025Z,4.50
2023-02-20T06:55:13.688Z,4.60
2023-02-20T06:57:42.124Z,4.60
2023-02-20T07:00:11.421Z,4.60
2023-02-20T07:02:39.811Z,4.70
2023-02-20T07:05:11.512Z,4.70
2023-02-20T07:07:40.396Z,4.70
2023-02-20T07:10:09.593Z,4.70
2023-02-20T07:12:38.628Z,4.80
2023-02-20T07:15:09.208Z,4.90
2023-02-20T07:17:37.573Z,4.90
2023-02-20T07:20:06.758Z,5.00
2023-02-20T07:22:36.486Z,5.00
2023-02-20T07:25:05.162Z,5.00
2023-02-20T07:27:34.082Z,5.00
2023-02-20T07:30:02.517Z,5.00
2023-02-20T07:32:30.946Z,5.00
2023-02-20T07:35:04.645Z,5.00
2023-02-20T07:37:36.005Z,5.00
2023-02-20T07:40:05.155Z,5.10
2023-02-20T07:42:33.952Z,5.10
2023-02-20T07:45:02.432Z,5.20
2023-02-20T07:47:30.836Z,5.20
2023-02-20T07:49:59.264Z,5.30
2023-02-20T07:52:27.600Z,5.40
2023-02-20T07:54:57.505Z,5.50
2023-02-20T07:57:25.880Z,5.60
2023-02-20T07:59:54.393Z,5.60
2023-02-20T08:02:22.713Z,5.80
2023-02-20T08:04:51.236Z,5.90
2023-02-20T08:07:19.525Z,6.10
2023-02-20T08:09:48.918Z,6.10
2023-02-20T08:12:18.628Z,6.20
2023-02-20T08:14:46.948Z,6.10
2023-02-20T08:17:15.382Z,6.00
2023-02-20T08:19:43.609Z,6.00
2023-02-20T08:22:15.016Z,5.90
2023-02-20T08:24:43.482Z,5.80
2023-02-20T08:27:11.918Z,5.80
2023-02-20T08:29:41.828Z,5.90
2023-02-20T08:32:10.252Z,6.00
2023-02-20T08:34:38.693Z,6.10
2023-02-20T08:37:07.104Z,6.20
2023-02-20T08:39:35.337Z,6.30
2023-02-20T08:42:04.127Z,6.40
2023-02-20T08:44:32.556Z,6.60
2023-02-20T08:47:02.337Z,6.60
2023-02-20T08:49:30.638Z,6.60
2023-02-20T08:51:59.384Z,6.60
2023-02-20T08:54:27.785Z,6.50
2023-02-20T08:56:56.149Z,6.60
2023-02-20T08:59:24.559Z,6.60
2023-02-20T09:01:52.960Z,6.60
2023-02-20T09:04:23.856Z,6.70
2023-02-20T09:06:52.139Z,6.70
2023-02-20T09:09:20.415Z,6.70
2023-02-20T09:11:48.754Z,6.70
2023-02-20T09:14:17.081Z,7.00
2023-02-20T09:16:45.357Z,7.40
2023-02-20T09:19:15.297Z,7.70
2023-02-20T09:21:47.594Z,8.00
2023-02-20T09:24:16.092Z,8.40
2023-02-20T09:26:44.361Z,8.80
2023-02-20T09:29:12.656Z,8.90
2023-02-20T09:31:41.044Z,9.00
2023-02-20T09:34:09.410Z,8.90
2023-02-20T09:36:37.662Z,8.90
2023-02-20T09:39:07.378Z,8.80
2023-02-20T09:41:47.309Z,8.70
2023-02-20T09:44:22.112Z,8.50
2023-02-20T09:46:51.872Z,8.30
2023-02-20T09:49:25.960Z,8.20
2023-02-20T09:51:57.532Z,8.20
2023-02-20T09:54:33.319Z,8.20
2023-02-20T09:57:04.726Z,8.10
2023-02-20T09:59:36.452Z,8.10
2023-02-20T10:02:15.975Z,8.10
2023-02-20T10:05:00.040Z,8.10
2023-02-20T10:07:32.136Z,8.10
2023-02-20T10:10:07.173Z,8.20
2023-02-20T10:12:44.742Z,8.20
2023-02-20T10:15:21.072Z,8.20
2023-02-20T10:17:56.209Z,8.30
2023-02-20T10:20:32.698Z,8.30
2023-02-20T10:23:08.804Z,8.40
2023-02-20T10:25:42.762Z,8.50
2023-02-20T10:28:15.423Z,8.60
2023-02-20T10:30:46.845Z,8.60
2023-02-20T10:33:31.159Z,8.80
2023-02-20T10:36:05.356Z,8.80
2023-02-20T10:38:42.510Z,8.90
2023-02-20T10:41:19.601Z,8.90
2023-02-20T10:43:51.882Z,8.90
2023-02-20T10:46:30.633Z,8.90
2023-02-20T10:49:10.567Z,9.00
2023-02-20T10:51:43.896Z,9.10
2023-02-20T10:54:17.121Z,9.10
2023-02-20T10:56:53.119Z,9.20
2023-02-20T10:59:27.184Z,9.20
2023-02-20T11:02:02.220Z,9.20
2023-02-20T11:04:35.814Z,9.30
2023-02-20T11:07:10.034Z,9.30
2023-02-20T11:09:38.994Z,9.40
2023-02-20T11:12:19.758Z,9.40
2023-02-20T11:14:48.920Z,9.50
2023-02-20T11:17:19.652Z,9.50
2023-02-20T11:19:49.592Z,9.60
2023-02-20T11:22:20.057Z,9.60
2023-02-20T11:24:48.552Z,9.70
2023-02-20T11:27:22.230Z,9.70
2023-02-20T11:29:53.330Z,9.80
2023-02-20T11:32:29.443Z,9.80
2023-02-20T11:35:26.716Z,9.90
2023-02-20T11:38:21.104Z,10.00
2023-02-20T11:41:03.076Z,10.10
2023-02-20T11:43:35.626Z,10.10
2023-02-20T11:46:17.655Z,10.20
2023-02-20T11:49:10.465Z,10.10
2023-02-20T11:51:40.782Z,10.20
2023-02-20T11:54:12.092Z,10.30
2023-02-20T11:56:54.676Z,10.50
2023-02-20T11:59:34.606Z,10.70
2023-02-20T12:02:24.047Z,10.80
2023-02-20T12:05:20.866Z,10.90
2023-02-20T12:08:00.655Z,10.80
2023-02-20T12:10:43.295Z,10.90
2023-02-20T12:13:15.928Z,11.00
2023-02-20T12:15:52.688Z,11.10
2023-02-20T12:18:41.759Z,11.20
2023-02-20T12:21:24.274Z,11.20
2023-02-20T12:24:08.337Z,11.20
2023-02-20T12:26:47.814Z,11.20
2023-02-20T12:29:27.835Z,11.10
2023-02-20T12:32:22.267Z,11.00
2023-02-20T12:35:00.939Z,11.10
2023-02-20T12:37:41.709Z,11.20
2023-02-20T12:40:29.340Z,11.10
2023-02-20T12:43:06.827Z,11.20
2023-02-20T12:45:41.124Z,11.40
2023-02-20T12:48:24.616Z,11.50
2023-02-20T12:51:08.606Z,11.50
2023-02-20T12:54:04.490Z,11.40
2023-02-20T12:56:48.882Z,11.30
2023-02-20T12:59:28.104Z,11.30
2023-02-20T13:01:58.344Z,11.30
2023-02-20T13:04:31.912Z,11.30
2023-02-20T13:07:06.685Z,11.20
2023-02-20T13:09:41.065Z,11.10
2023-02-20T13:12:14.850Z,11.10
2023-02-20T13:15:08.518Z,11.10
2023-02-20T13:17:42.071Z,11.20
2023-02-20T13:20:19.526Z,11.30
2023-02-20T13:23:04.433Z,11.40
2023-02-20T13:25:42.038Z,11.50
2023-02-20T13:28:31.905Z,11.50
2023-02-20T13:31:12.407Z,11.40
2023-02-20T13:33:42.315Z,11.30
2023-02-20T13:36:37.362Z,11.30
2023-02-20T13:39:28.502Z,11.20
2023-02-20T13:42:02.510Z,11.20
2023-02-20T13:44:47.272Z,11.20
2023-02-20T13:47:38.363Z,11.20
2023-02-20T13:50:33.363Z,11.10
2023-02-20T13:53:06.676Z,11.20
2023-02-20T13:55:35.601Z,11.30
2023-02-20T13:58:16.303Z,11.30
2023-02-20T14:00:51.366Z,11.40
2023-02-20T14:03:26.485Z,11.40
2023-02-20T14:06:07.406Z,11.40
2023-02-20T14:08:38.582Z,11.40
2023-02-20T14:11:08.878Z,11.40
2023-02-20T14:13:40.845Z,11.40
2023-02-20T14:16:28.574Z,11.30
2023-02-20T14:18:59.897Z,11.30
2023-02-20T14:21:30.223Z,11.30
2023-02-20T14:24:17.891Z,11.20
2023-02-20T14:26:46.557Z,11.30
2023-02-20T14:29:24.044Z,11.20
2023-02-20T14:31:54.153Z,11.20
2023-02-20T14:34:29.123Z,11.10
2023-02-20T14:37:05.547Z,11.00
2023-02-20T14:39:55.654Z,11.00
2023-02-20T14:42:26.508Z,10.90
2023-02-20T14:45:04.331Z,10.90
2023-02-20T14:47:32.900Z,10.90
2023-02-20T14:50:18.216Z,10.80
2023-02-20T14:52:46.826Z,10.80
2023-02-20T14:55:19.664Z,10.70
2023-02-20T14:57:50.534Z,10.70
2023-02-20T15:00:34.837Z,10.60
2023-02-20T15:03:15.013Z,10.60
2023-02-20T15:05:50.150Z,10.50
2023-02-20T15:08:26.586Z,10.50
2023-02-20T15:10:58.080Z,10.50
2023-02-20T15:13:31.288Z,10.40
2023-02-20T15:16:08.206Z,10.40
2023-02-20T15:18:41.498Z,10.50
2023-02-20T15:21:10.777Z,10.40
2023-02-20T15:23:40.662Z,10.40
2023-02-20T15:26:38.890Z,10.40
2023-02-20T15:29:20.385Z,10.30
2023-02-20T15:31:56.066Z,10.30
2023-02-20T15:34:26.608Z,10.30
2023-02-20T15:36:55.135Z,10.30
2023-02-20T15:39:23.844Z,10.30
2023-02-20T15:44:22.281Z,10.20
2023-02-20T15:46:50.524Z,10.20
2023-02-20T15:49:20.843Z,10.20
2023-02-20T15:51:56.173Z,10.20
2023-02-20T15:54:30.528Z,10.20
2023-02-20T15:57:03.762Z,10.20
2023-02-20T15:59:38.148Z,10.20
2023-02-20T16:02:12.760Z,10.10
2023-02-20T16:04:41.082Z,10.10
2023-02-20T16:07:09.512Z,10.00
2023-02-20T16:09:37.734Z,10.00
2023-02-20T16:12:08.034Z,10.00
2023-02-20T16:14:36.342Z,10.00
2023-02-20T16:17:07.654Z,10.00
2023-02-20T16:19:42.627Z,10.00
2023-02-20T16:22:11.954Z,9.90
2023-02-20T16:24:42.432Z,9.90
2023-02-20T16:27:23.684Z,9.90
2023-02-20T16:29:54.110Z,9.80
2023-02-20T16:32:24.973Z,9.90
2023-02-20T16:34:54.592Z,9.80
2023-02-20T16:37:26.900Z,9.80
2023-02-20T16:39:55.336Z,9.80
2023-02-20T16:42:36.986Z,9.80
2023-02-20T16:45:07.477Z,9.80
2023-02-20T16:47:35.759Z,9.80
2023-02-20T16:50:07.339Z,9.80
2023-02-20T16:52:37.923Z,9.90
2023-02-20T16:55:07.442Z,9.80
2023-02-20T16:57:40.009Z,9.80
2023-02-20T17:00:17.077Z,9.80
2023-02-20T17:02:48.949Z,9.70
2023-02-20T17:05:17.241Z,9.60
2023-02-20T17:07:45.722Z,9.60
2023-02-20T17:10:14.366Z,9.60
2023-02-20T17:12:44.289Z,9.60
2023-02-20T17:15:16.347Z,9.60
2023-02-20T17:17:45.520Z,9.70
2023-02-20T17:20:15.696Z,9.70
2023-02-20T17:22:45.364Z,9.70
2023-02-20T17:25:16.854Z,9.60
2023-02-20T17:27:53.307Z,9.60
2023-02-20T17:30:22.234Z,9.60
2023-02-20T17:32:50.641Z,9.60
2023-02-20T17:35:19.883Z,9.60
2023-02-20T17:37:49.373Z,9.60
2023-02-20T17:40:18.843Z,9.60
2023-02-20T17:42:47.205Z,9.60
2023-02-20T17:45:17.937Z,9.60
2023-02-20T17:47:46.834Z,9.70
2023-02-20T17:50:18.083Z,9.70
2023-02-20T17:52:47.068Z,9.70
2023-02-20T17:55:19.661Z,9.60
2023-02-20T17:57:51.072Z,9.60
2023-02-20T18:00:25.368Z,9.60
2023-02-20T18:02:54.030Z,9.60
2023-02-20T18:05:23.061Z,9.60
2023-02-20T18:08:00.394Z,9.60
2023-02-20T18:10:28.793Z,9.50
2023-02-20T18:13:06.002Z,9.40
2023-02-20T18:15:37.754Z,9.30
2023-02-20T18:18:06.623Z,9.20
2023-02-20T18:20:34.931Z,9.00
2023-02-20T18:23:03.223Z,8.70
2023-02-20T18:25:40.656Z,8.50
2023-02-20T18:28:10.542Z,8.30
2023-02-20T18:30:41.083Z,8.10
2023-02-20T18:33:09.479Z,8.10
2023-02-20T18:35:38.145Z,8.00
2023-02-20T18:38:07.248Z,7.90
2023-02-20T18:40:38.188Z,7.90
2023-02-20T18:43:08.479Z,7.90
2023-02-20T18:45:37.045Z,7.80
2023-02-20T18:48:07.469Z,7.90
2023-02-20T18:50:47.669Z,7.80
2023-02-20T18:53:20.127Z,7.80
2023-02-20T18:55:50.508Z,7.80
2023-02-20T18:58:24.415Z,7.80
2023-02-20T19:00:52.816Z,7.90
2023-02-20T19:03:25.639Z,7.90
2023-02-20T19:05:56.758Z,7.80
2023-02-20T19:08:25.151Z,7.80
2023-02-20T19:10:53.502Z,7.80
2023-02-20T19:13:24.848Z,7.80
2023-02-20T19:15:53.141Z,7.80
2023-02-20T19:18:23.361Z,7.80
2023-02-20T19:20:52.398Z,7.90
2023-02-20T19:23:23.927Z,8.00
2023-02-20T19:26:00.864Z,8.00
2023-02-20T19:28:29.457Z,7.90
2023-02-20T19:30:57.798Z,7.80
2023-02-20T19:33:30.756Z,7.70
2023-02-20T19:35:59.340Z,7.80
2023-02-20T19:38:28.194Z,7.80
2023-02-20T19:40:59.413Z,7.90
2023-02-20T19:43:29.968Z,7.90
2023-02-20T19:46:01.176Z,7.80
2023-02-20T19:48:32.388Z,7.80
2023-02-20T19:51:09.771Z,7.80
2023-02-20T19:53:38.050Z,7.70
2023-02-20T19:56:11.178Z,7.60
2023-02-20T19:58:41.487Z,7.50
2023-02-20T20:01:14.963Z,7.50
2023-02-20T20:03:46.264Z,7.50
2023-02-20T20:06:16.384Z,7.50
2023-02-20T20:09:10.020Z,7.50
2023-02-20T20:11:36.766Z,7.50
2023-02-20T20:14:09.040Z,7.50
2023-02-20T20:16:39.016Z,7.60
2023-02-20T20:19:10.034Z,7.70
2023-02-20T20:21:41.754Z,7.70
2023-02-20T20:24:12.634Z,7.80
2023-02-20T20:26:42.593Z,8.00
2023-02-20T20:29:10.981Z,8.10
2023-02-20T20:31:41.199Z,8.10
2023-02-20T20:34:11.290Z,8.10
2023-02-20T20:36:39.965Z,8.10
2023-02-20T20:39:08.262Z,8.10
2023-02-20T20:41:44.852Z,8.00
2023-02-20T20:44:14.603Z,8.00
2023-02-20T20:46:43.305Z,8.00
2023-02-20T20:49:13.791Z,8.10
2023-02-20T20:51:43.270Z,8.20
2023-02-20T20:54:15.031Z,8.20
2023-02-20T20:56:47.938Z,8.20
2023-02-20T20:59:17.991Z,8.20
2023-02-20T21:01:49.979Z,8.20
2023-02-20T21:04:20.100Z,8.20
2023-02-20T21:06:48.652Z,8.20
2023-02-20T21:09:17.328Z,8.20
2023-02-20T21:11:49.033Z,8.20
2023-02-20T21:14:18.470Z,8.20
2023-02-20T21:16:46.965Z,8.20
2023-02-20T21:19:15.441Z,8.20
2023-02-20T21:21:48.033Z,8.10
2023-02-20T21:24:16.444Z,8.10
2023-02-20T21:26:44.734Z,8.20
2023-02-20T21:29:13.164Z,8.20
2023-02-20T21:31:43.106Z,8.10
2023-02-20T21:34:12.218Z,8.10
2023-02-20T21:36:42.173Z,8.10
2023-02-20T21:39:12.113Z,8.10
2023-02-20T21:41:58.027Z,8.10
2023-02-20T21:44:30.471Z,8.10
2023-02-20T21:47:00.875Z,8.10
2023-02-20T21:49:31.523Z,8.00
2023-02-20T21:52:00.386Z,8.00
2023-02-20T21:54:32.054Z,8.00
2023-02-20T21:57:01.491Z,8.00
2023-02-20T21:59:31.549Z,8.00
2023-02-20T22:01:58.924Z,7.90
2023-02-20T22:04:26.354Z,7.90
2023-02-20T22:07:12.441Z,7.90
2023-02-20T22:09:59.306Z,7.90
2023-02-20T22:12:45.415Z,7.80
2023-02-20T22:15:31.976Z,7.80
2023-02-20T22:18:17.405Z,7.70
2023-02-20T22:21:03.379Z,7.70
2023-02-20T22:23:49.377Z,7.70
2023-02-20T22:26:36.764Z,7.60
2023-02-20T22:29:22.643Z,7.60
2023-02-20T22:32:08.434Z,7.60
2023-02-20T22:35:05.834Z,7.60
2023-02-20T22:38:03.135Z,7.60
2023-02-20T22:40:52.007Z,7.60
2023-02-20T22:43:41.585Z,7.60
2023-02-20T22:46:28.466Z,7.50
2023-02-20T22:49:14.838Z,7.50
2023-02-20T22:52:06.263Z,7.50
2023-02-20T22:55:04.056Z,7.50
2023-02-20T22:57:50.494Z,7.50
2023-02-20T23:00:38.164Z,7.50
2023-02-20T23:03:23.876Z,7.50
2023-02-20T23:06:18.054Z,7.50
2023-02-20T23:09:04.669Z,7.60
2023-02-20T23:11:52.157Z,7.50
2023-02-20T23:14:38.102Z,7.50
2023-02-20T23:17:35.688Z,7.50
2023-02-20T23:20:24.552Z,7.50
2023-02-20T23:23:10.326Z,7.50
2023-02-20T23:25:56.106Z,7.50
2023-02-20T23:28:41.942Z,7.50
2023-02-20T23:31:27.915Z,7.40
2023-02-20T23:34:15.530Z,7.40
2023-02-20T23:37:04.989Z,7.40
2023-02-20T23:39:51.635Z,7.30
2023-02-20T23:42:37.944Z,7.30
2023-02-20T23:45:25.599Z,7.30
2023-02-20T23:48:11.402Z,7.30
2023-02-20T23:50:58.588Z,7.20
2023-02-20T23:53:44.428Z,7.20
2023-02-20T23:56:30.261Z,7.20
2023-02-20T23:59:15.942Z,7.20
